Hauptseite
METAR-TAF:

METAR-TAF

Flughäfen :

Flughafen Lahr

Lahr, Deutschland

Breite: 48-22-09N, Länge: 007-49-40E, Höhe: 156 m

Beobachtung

Neuester Wetterbericht von vor 46 Minuten, um 15:20 UTC
Wind 9 kt aus Nord, variierte zwischen Nordwest und Nord/Nordost
Temperatur 27°C
Luftfeuchtigkeit 45%
Luftdruck 1021 hPa
Sichtweite 10 km oder mehr
keine Wolken unter 1500 m und keine Kumulonimbus oder Gewitterwolken

METAR: EDTL 231520Z 36009KT 320V030 CAVOK 27/14 Q1021

Zeit: 18:06 (16:06 UTC)

Prognose

Neuester Wetterbericht von vor 2 Stunden und 6 Minuten, um 14:00 UTC
Gültige Prognose vom 23 um 15 UTC bis 23 um 24 UTC
Wind 8 kt aus Nord/Nordost
Sichtweite 10 km oder mehr
keine Wolken unter 1500 m und keine Kumulonimbus oder Gewitterwolken
Übergehend zu
vom 23 um 18 UTC bis 23 um 20 UTC
Wind 3 kt aus Ost/Nordost

TAF: EDTL 231400Z 2315/2324 02008KT CAVOK BECMG 2318/2320 06003KT

Wetterbeobachtungen und Prognosen von mehr als 4000 Flughäfen (METAR und TAF Bericht).

Die verfügbaren Stationen werden durch gelbe und rote Markierungen auf der Karte dargestellt.

Führen Sie die Maus auf sie, um den Namen der Station zu sehen.

Darauf klicken, um die Beobachtung von Wetterbeobachtungen und Prognosen zu sehen.

Um die Karte zu ändern : klicken Sie auf den grünen Tasten mit einem schwarzen Kreuz Zum Vergrößern, auf den grünen Button mit einem Gedankenstrich zu verkleinern, oder auf die grünen Pfeile für benachbarte Karten.


METAR-TAF: